Time;durP1;ratioP1;P1;durP2;ratioP2;P2;SDS_P1;SDS_P2;PMS_P1;PMS_P2;Temp;Humidity;BMP_temperature;BMP_pressure;BME280_temperature;BME280_humidity;BME280_pressure;Samples;Min_cycle;Max_cycle;Signal;HPM_P1;HPM_P2
2023/09/14 00:01:45;;;;;;;1.10;1.00;;;9.00;99.90;;;;;;1898068;73;25628;-88
2023/09/14 00:04:34;;;;;;;1.43;1.00;;;8.90;99.90;;;;;;1865788;75;25236;-88
2023/09/14 00:07:23;;;;;;;4.30;0.87;;;8.90;99.90;;;;;;1835988;76;25322;-88
2023/09/14 00:10:11;;;;;;;5.13;1.00;;;8.80;99.90;;;;;;1824673;76;25812;-88
2023/09/14 00:12:59;;;;;;;2.63;1.10;;;8.80;99.90;;;;;;1835126;76;25342;-88
2023/09/14 00:15:48;;;;;;;1.10;1.00;;;8.70;99.90;;;;;;1854631;75;25292;-88
2023/09/14 00:21:17;;;;;;;1.23;1.13;;;8.70;99.90;;;;;;1940961;72;27134;-88
2023/09/14 00:24:06;;;;;;;3.70;1.30;;;8.70;99.90;;;;;;1892994;74;25692;-88
2023/09/14 00:26:55;;;;;;;1.23;1.10;;;8.70;99.90;;;;;;1894044;74;25189;-88
2023/09/14 00:32:22;;;;;;;0.93;0.87;;;8.60;99.90;;;;;;2018617;69;27367;-88
2023/09/14 00:35:11;;;;;;;0.87;0.87;;;8.60;99.90;;;;;;1964699;72;25302;-88
2023/09/14 00:38:00;;;;;;;4.73;1.10;;;8.60;99.90;;;;;;1967705;72;25218;-88
2023/09/14 00:40:50;;;;;;;1.70;1.13;;;8.60;99.90;;;;;;1980861;72;25171;-87
2023/09/14 00:43:40;;;;;;;1.20;1.10;;;8.60;99.90;;;;;;1944749;73;25719;-88
2023/09/14 00:46:29;;;;;;;1.00;1.00;;;8.60;99.90;;;;;;1950170;73;25153;-88
2023/09/14 00:49:18;;;;;;;0.90;0.90;;;8.60;99.90;;;;;;1934368;73;25263;-88
2023/09/14 00:52:07;;;;;;;3.53;1.00;;;8.60;99.90;;;;;;1944741;73;25320;-88
2023/09/14 00:54:56;;;;;;;0.77;0.63;;;8.70;99.90;;;;;;1951697;73;25286;-88
2023/09/14 00:57:46;;;;;;;0.93;0.93;;;8.70;99.90;;;;;;1949027;73;25702;-88
2023/09/14 01:00:34;;;;;;;0.90;0.90;;;8.70;99.90;;;;;;1948510;73;25186;-88
2023/09/14 01:03:24;;;;;;;0.90;0.90;;;8.60;99.90;;;;;;1950679;73;25274;-88
2023/09/14 01:06:14;;;;;;;1.00;0.90;;;8.60;99.90;;;;;;1933478;73;25209;-88
2023/09/14 01:09:05;;;;;;;0.97;0.83;;;8.60;99.90;;;;;;1932914;73;25468;-88
2023/09/14 01:11:54;;;;;;;0.90;0.83;;;8.60;99.90;;;;;;1935088;73;25231;-88
2023/09/14 01:18:08;;;;;;;1.80;0.90;;;8.40;99.90;;;;;;1924629;73;27672;-88
2023/09/14 01:21:15;;;;;;;1.27;1.10;;;8.40;99.90;;;;;;1924041;73;25191;-88
2023/09/14 01:24:10;;;;;;;0.83;0.83;;;8.30;99.90;;;;;;2004849;70;25151;-88
2023/09/14 01:26:59;;;;;;;0.90;0.90;;;8.30;99.90;;;;;;2007984;70;25266;-88
2023/09/14 01:29:47;;;;;;;2.17;1.10;;;8.20;99.90;;;;;;1999916;70;25131;-88
2023/09/14 01:32:35;;;;;;;2.27;0.90;;;8.20;99.90;;;;;;1993573;70;25706;-88
2023/09/14 01:51:15;;;;;;;1.87;0.70;;;7.90;99.90;;;;;;1931677;72;27072;-88
2023/09/14 01:56:44;;;;;;;0.97;0.90;;;7.70;99.90;;;;;;1936619;72;27000;-88
2023/09/14 01:59:32;;;;;;;2.53;0.70;;;7.70;99.90;;;;;;1905742;75;25690;-88
2023/09/14 02:02:23;;;;;;;0.90;0.90;;;7.70;99.90;;;;;;1901716;74;25322;-88
2023/09/14 02:05:11;;;;;;;0.87;0.80;;;7.70;99.90;;;;;;1898730;73;25338;-88
2023/09/14 02:08:00;;;;;;;0.80;0.80;;;7.70;99.90;;;;;;1895520;73;25245;-88
2023/09/14 02:10:48;;;;;;;0.67;0.67;;;7.60;99.90;;;;;;1904582;74;25246;-89
2023/09/14 02:13:37;;;;;;;0.87;0.80;;;7.50;99.90;;;;;;1901727;75;25215;-89
2023/09/14 02:16:27;;;;;;;1.13;0.93;;;7.30;99.90;;;;;;1901537;75;25716;-89
2023/09/14 02:19:15;;;;;;;0.87;0.77;;;7.30;99.90;;;;;;1904397;75;25318;-88
2023/09/14 02:22:04;;;;;;;2.63;0.93;;;7.20;99.90;;;;;;1888991;73;25232;-88
2023/09/14 02:24:53;;;;;;;1.13;1.03;;;7.20;99.90;;;;;;1912071;74;25175;-88
2023/09/14 02:27:41;;;;;;;0.80;0.80;;;7.20;99.90;;;;;;1893969;73;25286;-88
2023/09/14 02:30:30;;;;;;;1.17;1.07;;;7.20;99.90;;;;;;1903041;73;25807;-88
2023/09/14 02:33:19;;;;;;;1.00;0.90;;;7.30;99.90;;;;;;1885845;75;25642;-89
2023/09/14 02:38:46;;;;;;;0.70;0.70;;;7.30;99.90;;;;;;1929890;72;27140;-89
2023/09/14 02:41:34;;;;;;;0.90;0.90;;;7.30;99.90;;;;;;1908291;75;25262;-88
2023/09/14 02:44:22;;;;;;;0.90;0.90;;;7.20;99.90;;;;;;1866020;74;25687;-89
2023/09/14 02:47:11;;;;;;;2.53;1.00;;;7.20;99.90;;;;;;1867003;75;25261;-88
2023/09/14 02:50:00;;;;;;;2.90;0.90;;;7.20;99.90;;;;;;1871993;75;25193;-88
2023/09/14 02:55:36;;;;;;;0.90;0.80;;;7.20;99.90;;;;;;1963834;71;26996;-88
2023/09/14 02:58:24;;;;;;;0.70;0.70;;;7.30;99.90;;;;;;1921249;74;25275;-88
2023/09/14 03:01:13;;;;;;;0.87;0.80;;;7.30;99.90;;;;;;1923498;73;25170;-88
2023/09/14 03:04:02;;;;;;;1.10;1.00;;;7.30;99.90;;;;;;1916183;74;25772;-88
2023/09/14 03:06:50;;;;;;;1.27;0.93;;;7.30;99.90;;;;;;1910999;74;25701;-88
2023/09/14 03:23:02;;;;;;;2.43;0.67;;;7.20;99.90;;;;;;1941633;72;26695;-88
2023/09/14 03:25:52;;;;;;;0.87;0.87;;;7.20;99.90;;;;;;1936109;73;25233;-88
2023/09/14 03:28:40;;;;;;;1.30;0.80;;;7.10;99.90;;;;;;1937330;73;25168;-88
2023/09/14 03:31:29;;;;;;;1.23;0.80;;;7.10;99.90;;;;;;1917032;73;25217;-88
2023/09/14 03:34:17;;;;;;;0.70;0.70;;;7.10;99.90;;;;;;1920237;73;25839;-88
2023/09/14 03:37:06;;;;;;;0.80;0.80;;;7.00;99.90;;;;;;1926249;73;25742;-88
2023/09/14 03:39:54;;;;;;;0.60;0.60;;;7.00;99.90;;;;;;1922913;73;25166;-89
2023/09/14 03:42:43;;;;;;;0.67;0.67;;;7.00;99.90;;;;;;1921591;73;25193;-88
2023/09/14 03:45:32;;;;;;;0.77;0.77;;;7.00;99.90;;;;;;1925458;73;25791;-88
2023/09/14 03:48:21;;;;;;;0.73;0.73;;;7.00;99.90;;;;;;1921197;73;25981;-88
2023/09/14 03:53:48;;;;;;;0.93;0.80;;;7.00;99.90;;;;;;2027128;69;27010;-88
2023/09/14 03:56:38;;;;;;;0.70;0.70;;;6.90;99.90;;;;;;1998238;71;25227;-89
2023/09/14 03:59:26;;;;;;;0.90;0.90;;;6.90;99.90;;;;;;1998748;71;25204;-88
2023/09/14 04:02:14;;;;;;;1.30;0.80;;;6.90;99.90;;;;;;2005260;70;25707;-88
2023/09/14 04:05:14;;;;;;;1.10;0.73;;;6.90;99.90;;;;;;2005111;70;25220;-89
2023/09/14 04:08:02;;;;;;;0.73;0.73;;;6.90;99.90;;;;;;1997137;71;25137;-89
2023/09/14 04:10:51;;;;;;;1.13;0.77;;;6.90;99.90;;;;;;1998233;71;25139;-90
2023/09/14 04:13:40;;;;;;;0.70;0.70;;;6.80;99.90;;;;;;2004535;71;25781;-89
2023/09/14 04:16:30;;;;;;;0.80;0.80;;;6.70;99.90;;;;;;2015274;71;25184;-89
2023/09/14 04:19:19;;;;;;;1.57;0.90;;;6.70;99.90;;;;;;2007636;71;25205;-89
2023/09/14 04:22:07;;;;;;;0.70;0.70;;;6.60;99.90;;;;;;2012360;71;25613;-89
2023/09/14 04:24:56;;;;;;;1.20;1.10;;;6.50;99.90;;;;;;1999532;71;25947;-89
2023/09/14 04:27:44;;;;;;;4.03;0.90;;;6.40;99.90;;;;;;2002813;70;25214;-90
2023/09/14 04:30:32;;;;;;;0.90;0.90;;;6.30;99.90;;;;;;1997713;71;25207;-89
2023/09/14 04:36:06;;;;;;;0.87;0.87;;;6.30;99.90;;;;;;1915433;72;27136;-88
2023/09/14 04:38:54;;;;;;;1.13;0.80;;;6.30;99.90;;;;;;1889138;75;25234;-88
2023/09/14 04:41:42;;;;;;;0.70;0.70;;;6.30;99.90;;;;;;1884064;74;25777;-88
2023/09/14 04:44:31;;;;;;;1.60;0.80;;;6.30;99.90;;;;;;1880885;74;25297;-90
2023/09/14 04:47:20;;;;;;;1.13;0.90;;;6.30;99.90;;;;;;1874821;75;25260;-89
2023/09/14 04:50:10;;;;;;;5.07;0.80;;;6.30;99.90;;;;;;1886087;73;25649;-90
2023/09/14 04:52:59;;;;;;;3.03;0.80;;;6.30;99.90;;;;;;1888046;73;25224;-89
2023/09/14 05:39:33;;;;;;;0.80;0.80;;;6.50;99.90;;;;;;1930122;73;27504;-90
2023/09/14 05:56:48;;;;;;;1.97;0.80;;;7.40;99.90;;;;;;1906998;73;26371;-90
2023/09/14 06:14:44;;;;;;;0.70;0.70;;;8.40;99.90;;;;;;1907183;75;26925;-89
2023/09/14 06:30:47;;;;;;;2.20;0.80;;;8.80;99.90;;;;;;1881114;75;27048;-90
2023/09/14 06:49:13;;;;;;;1.53;0.80;;;9.20;99.90;;;;;;1902778;75;26270;-90
2023/09/14 07:25:00;;;;;;;6.80;1.20;;;9.80;99.90;;;;;;1982022;71;27080;-89
2023/09/14 07:27:49;;;;;;;5.77;0.90;;;9.90;99.90;;;;;;1979906;72;25241;-89
2023/09/14 07:30:37;;;;;;;3.23;0.90;;;9.80;99.90;;;;;;1981256;72;25149;-91
2023/09/14 07:33:26;;;;;;;2.40;0.80;;;9.80;99.90;;;;;;1961981;71;25679;-89
2023/09/14 07:36:15;;;;;;;1.67;0.80;;;9.90;99.90;;;;;;1969636;72;25266;-91
2023/09/14 07:39:05;;;;;;;1.33;0.60;;;9.90;99.90;;;;;;1982066;71;25198;-89
2023/09/14 07:41:55;;;;;;;0.40;0.40;;;9.80;99.90;;;;;;1972053;72;25378;-89
2023/09/14 07:44:44;;;;;;;1.40;0.80;;;9.70;99.90;;;;;;1955240;72;25208;-89
2023/09/14 07:47:32;;;;;;;4.27;0.70;;;9.70;99.90;;;;;;1952996;72;25256;-91
2023/09/14 07:50:21;;;;;;;0.80;0.80;;;9.90;99.90;;;;;;1954598;72;25905;-92
2023/09/14 07:53:10;;;;;;;2.60;0.70;;;10.10;99.90;;;;;;1967785;72;25224;-93
2023/09/14 07:55:59;;;;;;;1.20;0.50;;;10.50;99.90;;;;;;1957679;72;25162;-89
2023/09/14 07:58:47;;;;;;;0.50;0.50;;;10.70;99.90;;;;;;1932533;72;26035;-92
2023/09/14 08:01:37;;;;;;;1.50;0.43;;;10.70;99.90;;;;;;1963429;72;25185;-90
2023/09/14 08:04:26;;;;;;;0.60;0.60;;;10.90;99.90;;;;;;1965734;72;25852;-89
2023/09/14 08:07:15;;;;;;;0.60;0.60;;;11.20;99.90;;;;;;1960207;72;25583;-90
2023/09/14 08:10:05;;;;;;;0.53;0.53;;;11.40;99.90;;;;;;1977088;72;26516;-90
2023/09/14 08:12:53;;;;;;;0.87;0.60;;;11.40;99.90;;;;;;1895793;75;25203;-90
2023/09/14 08:28:52;;;;;;;2.73;0.73;;;11.30;99.90;;;;;;1848700;76;28396;-89
2023/09/14 08:46:57;;;;;;;1.97;0.80;;;10.90;99.90;;;;;;1887517;75;26297;-89
2023/09/14 08:52:27;;;;;;;1.13;0.63;;;11.60;99.90;;;;;;1935371;72;27396;-90
2023/09/14 08:58:03;;;;;;;1.53;0.53;;;11.80;99.90;;;;;;1949525;72;26976;-90
2023/09/14 09:00:53;;;;;;;1.03;0.80;;;11.90;99.90;;;;;;1942354;73;26398;-89
2023/09/14 09:03:42;;;;;;;0.60;0.60;;;11.70;99.90;;;;;;1925667;72;25195;-89
2023/09/14 09:06:31;;;;;;;1.63;0.80;;;11.50;99.90;;;;;;1939291;73;25364;-89
2023/09/14 09:09:23;;;;;;;0.57;0.57;;;11.60;99.90;;;;;;1946277;72;25298;-89
2023/09/14 09:12:12;;;;;;;1.87;0.73;;;11.40;99.90;;;;;;1930995;72;25231;-90
2023/09/14 09:15:03;;;;;;;1.80;0.70;;;11.30;99.90;;;;;;1924605;73;25213;-91
2023/09/14 09:17:53;;;;;;;0.83;0.83;;;11.40;99.90;;;;;;1928778;72;26026;-89
2023/09/14 09:20:45;;;;;;;4.03;0.87;;;11.50;99.90;;;;;;1924425;73;25227;-91
2023/09/14 09:23:35;;;;;;;1.60;0.70;;;11.60;99.90;;;;;;1885221;75;25272;-90
2023/09/14 10:12:45;;;;;;;0.50;0.50;;;13.30;99.90;;;;;;1945853;72;27029;-89
2023/09/14 10:15:36;;;;;;;2.30;0.60;;;13.40;99.90;;;;;;1917128;73;25683;-91
2023/09/14 10:18:35;;;;;;;0.50;0.50;;;13.20;99.90;;;;;;1922358;73;25225;-92
2023/09/14 10:21:26;;;;;;;2.07;0.60;;;13.20;99.90;;;;;;1916646;73;25221;-91
2023/09/14 10:24:15;;;;;;;0.60;0.60;;;13.20;99.90;;;;;;1916360;75;25203;-91
2023/09/14 10:27:06;;;;;;;0.60;0.60;;;13.10;99.90;;;;;;1916407;75;25266;-91
2023/09/14 10:29:56;;;;;;;0.47;0.47;;;12.90;99.90;;;;;;1916326;73;25669;-91
2023/09/14 10:32:46;;;;;;;2.67;0.77;;;12.70;99.90;;;;;;1916639;73;25183;-91
2023/09/14 10:38:29;;;;;;;0.70;0.70;;;12.50;99.90;;;;;;1949266;72;27057;-89
2023/09/14 10:41:18;;;;;;;2.07;0.50;;;12.40;99.90;;;;;;1932656;73;25283;-89
2023/09/14 11:01:38;;;;;;;0.67;0.50;;;12.70;99.90;;;;;;1946380;72;27099;-91
2023/09/14 11:17:35;;;;;;;0.80;0.80;;;12.50;99.90;;;;;;1835933;76;27004;-89
2023/09/14 11:34:16;;;;;;;0.70;0.70;;;12.60;99.90;;;;;;1871931;75;27107;-88
2023/09/14 11:39:54;;;;;;;0.70;0.70;;;12.70;99.90;;;;;;1943030;71;27038;-91
2023/09/14 11:46:00;;;;;;;2.20;0.70;;;12.70;99.90;;;;;;1941731;72;27595;-89
2023/09/14 11:48:49;;;;;;;0.77;0.77;;;12.60;99.90;;;;;;1911894;73;25767;-90
2023/09/14 11:51:38;;;;;;;0.73;0.70;;;12.60;99.90;;;;;;1912748;75;25898;-90
2023/09/14 11:54:32;;;;;;;0.90;0.90;;;12.70;99.90;;;;;;1916495;73;25324;-90
2023/09/14 11:57:28;;;;;;;0.67;0.67;;;12.80;99.90;;;;;;1911078;73;25220;-90
2023/09/14 12:00:19;;;;;;;5.77;0.97;;;12.90;99.90;;;;;;1903765;73;25656;-90
2023/09/14 12:03:09;;;;;;;4.10;1.33;;;13.00;99.90;;;;;;1913708;74;25179;-91
2023/09/14 12:05:59;;;;;;;3.33;1.00;;;12.90;99.90;;;;;;1903731;73;25285;-91
2023/09/14 12:08:49;;;;;;;2.43;0.80;;;12.90;99.90;;;;;;1926928;73;25696;-91
2023/09/14 12:11:42;;;;;;;2.07;0.73;;;12.90;99.90;;;;;;1894177;75;25204;-91
2023/09/14 12:14:37;;;;;;;3.43;0.80;;;13.00;99.90;;;;;;1913986;75;25255;-91
2023/09/14 12:18:04;;;;;;;1.07;0.67;;;13.10;99.90;;;;;;1902309;73;25248;-91
2023/09/14 12:20:52;;;;;;;1.53;0.80;;;13.30;99.90;;;;;;1905432;75;25189;-91
2023/09/14 12:23:44;;;;;;;1.23;0.60;;;13.40;99.90;;;;;;1916714;73;25706;-91
2023/09/14 12:26:34;;;;;;;2.23;0.60;;;13.40;99.90;;;;;;1911779;75;25285;-91
2023/09/14 12:29:25;;;;;;;2.37;0.50;;;13.20;99.90;;;;;;1869132;75;25326;-91
2023/09/14 12:32:15;;;;;;;1.03;0.90;;;12.90;99.90;;;;;;1874228;75;25347;-91
2023/09/14 12:35:05;;;;;;;1.80;0.60;;;12.90;99.90;;;;;;1871554;76;25271;-91
2023/09/14 12:37:54;;;;;;;1.93;0.60;;;13.00;99.90;;;;;;1839108;76;25289;-91
2023/09/14 12:40:43;;;;;;;1.30;0.93;;;13.20;99.90;;;;;;1847721;77;25318;-90
2023/09/14 12:46:25;;;;;;;3.13;0.70;;;13.30;99.90;;;;;;1945983;72;27026;-90
2023/09/14 12:49:15;;;;;;;1.00;0.90;;;13.40;99.90;;;;;;1916486;75;25239;-91
2023/09/14 12:52:06;;;;;;;0.80;0.80;;;13.50;99.90;;;;;;1931528;73;25200;-89
2023/09/14 12:54:55;;;;;;;1.97;0.80;;;13.40;99.90;;;;;;1931965;73;25753;-90
2023/09/14 12:57:47;;;;;;;0.70;0.70;;;13.20;99.90;;;;;;1941243;73;26620;-90
2023/09/14 13:00:37;;;;;;;1.60;0.90;;;13.10;99.90;;;;;;1938004;73;25725;-90
2023/09/14 13:03:27;;;;;;;0.60;0.60;;;13.00;99.90;;;;;;1925212;73;25217;-90
2023/09/14 13:06:16;;;;;;;0.60;0.60;;;13.10;99.90;;;;;;1917082;73;25226;-90
2023/09/14 13:09:08;;;;;;;0.63;0.63;;;13.10;99.90;;;;;;1936743;73;25295;-90
2023/09/14 13:11:57;;;;;;;6.10;0.80;;;13.30;99.90;;;;;;1937779;73;25755;-90
2023/09/14 13:14:47;;;;;;;0.73;0.70;;;13.20;99.90;;;;;;1935840;73;25298;-90
2023/09/14 13:17:35;;;;;;;2.13;0.70;;;13.20;99.90;;;;;;1928096;73;25637;-90
2023/09/14 13:20:25;;;;;;;2.07;0.80;;;13.20;99.90;;;;;;1915352;73;25508;-90
2023/09/14 13:23:14;;;;;;;1.53;0.60;;;13.10;99.90;;;;;;1918739;73;25279;-90
2023/09/14 13:26:04;;;;;;;1.43;0.60;;;13.20;99.90;;;;;;1922174;73;25221;-90
2023/09/14 13:28:53;;;;;;;1.17;0.80;;;13.20;99.90;;;;;;1921680;73;25729;-90
2023/09/14 13:31:42;;;;;;;3.03;0.80;;;13.20;99.90;;;;;;1916975;73;25227;-90
2023/09/14 13:34:31;;;;;;;2.67;0.80;;;13.10;99.90;;;;;;1924644;73;25311;-90
2023/09/14 13:37:20;;;;;;;0.77;0.77;;;13.10;99.90;;;;;;1916320;73;25272;-90
2023/09/14 13:40:14;;;;;;;1.23;0.70;;;13.10;99.90;;;;;;1937001;73;25694;-90
2023/09/14 13:43:03;;;;;;;3.97;0.87;;;13.10;99.90;;;;;;1924197;73;25697;-90
2023/09/14 13:45:52;;;;;;;0.77;0.70;;;13.10;99.90;;;;;;1938685;73;25337;-90
2023/09/14 13:48:41;;;;;;;1.50;0.80;;;13.10;99.90;;;;;;1924709;73;25344;-90
2023/09/14 13:51:29;;;;;;;0.90;0.90;;;13.00;99.90;;;;;;1928200;73;25221;-90
2023/09/14 13:54:18;;;;;;;1.53;0.70;;;13.00;99.90;;;;;;1922717;73;25177;-90
2023/09/14 13:57:08;;;;;;;0.70;0.70;;;13.20;99.90;;;;;;1935606;73;25246;-90
2023/09/14 13:59:56;;;;;;;1.43;0.60;;;13.20;99.90;;;;;;1931284;73;25290;-90
2023/09/14 14:16:23;;;;;;;2.10;0.90;;;13.40;99.90;;;;;;1915633;74;26610;-88
2023/09/14 14:22:02;;;;;;;1.57;1.00;;;13.20;99.90;;;;;;1948242;72;27153;-89
2023/09/14 14:24:51;;;;;;;1.30;0.87;;;13.20;99.90;;;;;;1931631;73;25278;-90
2023/09/14 14:27:41;;;;;;;2.17;1.00;;;13.20;99.90;;;;;;1941169;73;25276;-90
2023/09/14 14:30:30;;;;;;;2.43;1.03;;;13.10;99.90;;;;;;1929558;73;25209;-90
2023/09/14 14:33:19;;;;;;;2.30;0.90;;;13.20;99.90;;;;;;1925292;73;25232;-90
2023/09/14 14:36:08;;;;;;;3.17;0.90;;;13.30;99.90;;;;;;1924105;73;25274;-90
2023/09/14 14:38:56;;;;;;;0.90;0.90;;;13.40;99.90;;;;;;1930997;73;25276;-90
2023/09/14 14:44:37;;;;;;;1.17;0.90;;;13.50;99.90;;;;;;1954851;72;26949;-90
2023/09/14 14:50:06;;;;;;;1.30;1.00;;;13.60;99.90;;;;;;1933727;72;27528;-89
2023/09/14 14:55:38;;;;;;;2.73;0.93;;;13.60;99.90;;;;;;2009015;69;27057;-93
2023/09/14 14:58:27;;;;;;;1.90;1.00;;;13.40;99.90;;;;;;1960691;72;25230;-90
2023/09/14 15:01:16;;;;;;;1.43;1.20;;;13.40;99.90;;;;;;1960844;72;25350;-89
2023/09/14 15:04:06;;;;;;;2.30;1.00;;;13.50;99.90;;;;;;1965913;72;25293;-89
2023/09/14 15:06:55;;;;;;;1.63;0.90;;;13.60;99.90;;;;;;1970728;72;25174;-90
2023/09/14 15:09:44;;;;;;;2.30;1.13;;;13.50;99.90;;;;;;1964722;72;25179;-89
2023/09/14 15:12:33;;;;;;;1.20;1.10;;;13.40;99.90;;;;;;1970350;72;25171;-89
2023/09/14 15:15:22;;;;;;;1.57;0.90;;;13.40;99.90;;;;;;1965373;72;25260;-90
2023/09/14 15:18:16;;;;;;;2.60;1.20;;;13.50;99.90;;;;;;1974823;72;25207;-90
2023/09/14 15:21:17;;;;;;;1.30;0.90;;;13.60;99.90;;;;;;1966025;72;25171;-89
2023/09/14 15:24:07;;;;;;;2.97;1.40;;;13.60;99.90;;;;;;1948229;72;25214;-90
2023/09/14 15:26:55;;;;;;;1.93;0.90;;;13.70;99.90;;;;;;1955457;72;25604;-90
2023/09/14 15:29:44;;;;;;;2.57;1.10;;;13.60;99.90;;;;;;1913240;72;25274;-91
2023/09/14 15:35:19;;;;;;;4.03;1.10;;;13.70;99.90;;;;;;1944510;72;26954;-90
2023/09/14 15:52:27;;;;;;;3.13;0.80;;;13.80;99.90;;;;;;1951600;72;28807;-92
2023/09/14 16:39:43;;;;;;;1.03;0.90;;;13.60;99.90;;;;;;1940689;72;27201;-90
2023/09/14 16:56:03;;;;;;;1.57;1.17;;;13.30;99.90;;;;;;1908270;73;27071;-90
2023/09/14 17:13:31;;;;;;;3.87;1.00;;;13.20;99.90;;;;;;1867840;76;27113;-90
2023/09/14 17:47:12;;;;;;;6.03;2.27;;;12.00;99.90;;;;;;1977548;71;26943;-90
2023/09/14 17:50:01;;;;;;;2.27;1.93;;;11.80;99.90;;;;;;1957495;72;25254;-90
2023/09/14 17:52:50;;;;;;;5.40;2.20;;;11.70;99.90;;;;;;2034233;69;25222;-90
2023/09/14 17:56:10;;;;;;;2.90;2.13;;;11.60;99.90;;;;;;2040285;69;25233;-90
2023/09/14 17:58:59;;;;;;;3.73;2.37;;;11.60;99.90;;;;;;2053332;69;25187;-90
2023/09/14 18:01:48;;;;;;;3.97;2.53;;;11.40;99.90;;;;;;2042233;69;25155;-90
2023/09/14 18:04:37;;;;;;;3.23;2.00;;;11.20;99.90;;;;;;2037984;69;25153;-90
2023/09/14 18:07:27;;;;;;;3.07;2.00;;;11.10;99.90;;;;;;2021525;69;25218;-90
2023/09/14 18:10:15;;;;;;;3.60;2.20;;;11.20;99.90;;;;;;2034203;69;25284;-90
2023/09/14 18:13:04;;;;;;;5.23;2.33;;;11.10;99.90;;;;;;2039593;69;25273;-90
2023/09/14 18:15:55;;;;;;;9.43;2.30;;;10.90;99.90;;;;;;2060030;69;25167;-90
2023/09/14 18:18:44;;;;;;;3.80;2.50;;;10.90;99.90;;;;;;2041437;69;25180;-90
2023/09/14 18:21:33;;;;;;;7.23;2.97;;;11.00;99.90;;;;;;2049446;69;25194;-90
2023/09/14 18:24:22;;;;;;;4.93;2.30;;;11.00;99.90;;;;;;2040937;69;25175;-90
2023/09/14 18:27:10;;;;;;;4.13;2.30;;;10.80;99.90;;;;;;2039247;69;25165;-90
2023/09/14 18:33:22;;;;;;;8.10;2.50;;;10.70;99.90;;;;;;1991207;71;26257;-90
2023/09/14 18:36:13;;;;;;;2.23;2.03;;;10.70;99.90;;;;;;1965066;72;25407;-90
2023/09/14 18:39:03;;;;;;;6.40;2.00;;;10.50;99.90;;;;;;2045911;69;25181;-90
2023/09/14 19:09:11;;;;;;;5.20;2.57;;;10.40;99.90;;;;;;1920627;74;27864;-90
2023/09/14 19:25:27;;;;;;;2.97;2.53;;;10.90;99.90;;;;;;1877708;72;27689;-89
2023/09/14 19:28:16;;;;;;;7.03;2.97;;;10.70;99.90;;;;;;1839012;77;25270;-89
2023/09/14 19:33:49;;;;;;;3.47;2.30;;;10.50;99.90;;;;;;2017802;69;26881;-90
2023/09/14 19:36:37;;;;;;;4.03;2.43;;;10.50;99.90;;;;;;1959260;72;25143;-90
2023/09/14 19:39:26;;;;;;;5.67;2.53;;;10.40;99.90;;;;;;1957771;72;25928;-90
2023/09/14 19:45:11;;;;;;;3.87;2.43;;;10.20;99.90;;;;;;1941932;72;27179;-89
2023/09/14 20:01:10;;;;;;;5.07;3.07;;;10.30;99.90;;;;;;1920254;73;29408;-89
2023/09/14 20:28:18;;;;;;;3.20;1.80;;;10.30;99.90;;;;;;2000003;71;27008;-90
2023/09/14 20:58:56;;;;;;;2.63;1.63;;;13.40;99.90;;;;;;1879084;74;27214;-91
2023/09/14 21:01:46;;;;;;;4.27;2.00;;;13.40;99.90;;;;;;1890790;76;25244;-90
2023/09/14 21:04:36;;;;;;;3.70;1.80;;;13.40;99.90;;;;;;1888973;73;25172;-90
2023/09/14 21:07:26;;;;;;;3.30;2.00;;;13.40;99.90;;;;;;1892661;74;25295;-90
2023/09/14 21:10:19;;;;;;;4.60;2.00;;;13.40;99.90;;;;;;1878977;74;25164;-90
2023/09/14 21:13:09;;;;;;;3.63;2.07;;;13.40;99.90;;;;;;1898011;74;25712;-90
2023/09/14 21:15:58;;;;;;;5.70;1.80;;;13.30;99.90;;;;;;1887989;76;25289;-91
2023/09/14 21:18:47;;;;;;;5.43;2.13;;;13.20;99.90;;;;;;1876988;74;25351;-91
2023/09/14 21:24:30;;;;;;;3.33;2.10;;;13.30;99.90;;;;;;1941247;72;26998;-90
2023/09/14 21:27:20;;;;;;;4.67;1.80;;;13.30;99.90;;;;;;1925534;73;25772;-91
2023/09/14 22:12:43;;;;;;;1.63;1.23;;;13.20;99.90;;;;;;1973965;71;26313;-90
2023/09/14 22:18:26;;;;;;;3.70;1.00;;;13.10;99.90;;;;;;1948442;72;27101;-90
2023/09/14 22:47:56;;;;;;;4.33;1.33;;;12.80;99.90;;;;;;1863899;75;26425;-89
2023/09/14 23:34:59;;;;;;;3.37;0.87;;;13.10;99.90;;;;;;1923893;73;26146;-90
2023/09/14 23:43:41;;;;;;;2.53;1.00;;;13.10;99.90;;;;;;1982081;71;27416;-90
2023/09/14 23:46:30;;;;;;;1.63;0.97;;;13.10;99.90;;;;;;1958547;72;25284;-90
2023/09/14 23:49:18;;;;;;;2.83;1.13;;;13.10;99.90;;;;;;1973996;72;25191;-90
2023/09/14 23:52:10;;;;;;;2.63;1.10;;;13.10;99.90;;;;;;2041238;69;25204;-90
2023/09/14 23:54:59;;;;;;;5.33;1.10;;;13.10;99.90;;;;;;2032144;69;25131;-90
